createdAt,value
2023-03-10T00:02:23.059Z,98094.25
2023-03-10T00:07:24.663Z,98096.69
2023-03-10T00:12:27.834Z,98079.56
2023-03-10T00:17:29.528Z,98077.34
2023-03-10T00:22:31.087Z,98069.78
2023-03-10T00:27:33.257Z,98065.78
2023-03-10T00:32:35.908Z,98069.53
2023-03-10T00:37:39.141Z,98048.00
2023-03-10T00:42:41.497Z,98060.97
2023-03-10T00:47:43.070Z,98039.72
2023-03-10T00:52:45.644Z,98021.72
2023-03-10T00:57:47.459Z,98015.44
2023-03-10T01:02:51.497Z,98015.25
2023-03-10T01:07:53.483Z,97999.53
2023-03-10T01:12:55.138Z,97989.13
2023-03-10T01:17:56.733Z,97977.28
2023-03-10T01:22:58.646Z,97977.88
2023-03-10T01:28:00.223Z,97966.41
2023-03-10T01:33:01.913Z,97956.22
2023-03-10T01:38:04.302Z,97947.00
2023-03-10T01:43:33.298Z,97928.16
2023-03-10T01:48:36.249Z,97925.28
2023-03-10T01:53:38.709Z,97910.34
2023-03-10T01:58:42.993Z,97911.00
2023-03-10T02:03:49.645Z,97908.16
2023-03-10T02:08:56.762Z,97909.00
2023-03-10T02:14:01.640Z,97897.94
2023-03-10T02:19:06.516Z,97890.13
2023-03-10T02:24:39.838Z,97871.94
2023-03-10T02:29:58.898Z,97862.53
2023-03-10T02:35:01.635Z,97855.34
2023-03-10T02:40:29.684Z,97848.78
2023-03-10T02:45:33.354Z,97838.53
2023-03-10T02:50:38.186Z,97839.84
2023-03-10T02:55:40.417Z,97838.31
2023-03-10T03:00:44.687Z,97818.28
2023-03-10T03:05:49.534Z,97808.66
2023-03-10T03:10:51.701Z,97807.25
2023-03-10T03:15:54.186Z,97793.50
2023-03-10T03:20:56.439Z,97784.88
2023-03-10T03:25:58.120Z,97776.06
2023-03-10T03:31:01.946Z,97775.66
2023-03-10T03:36:05.868Z,97770.31
2023-03-10T03:41:08.457Z,97772.78
2023-03-10T03:46:12.452Z,97760.88
2023-03-10T03:51:14.906Z,97745.88
2023-03-10T03:56:18.154Z,97745.66
2023-03-10T04:01:20.668Z,97733.75
2023-03-10T04:06:27.518Z,97727.59
2023-03-10T04:11:30.596Z,97717.13
2023-03-10T04:16:32.393Z,97717.31
2023-03-10T04:21:38.088Z,97717.53
2023-03-10T04:26:40.491Z,97713.44
2023-03-10T04:31:43.747Z,97696.38
2023-03-10T04:36:48.314Z,97687.75
2023-03-10T04:41:50.767Z,97680.56
2023-03-10T04:46:52.626Z,97688.16
2023-03-10T04:51:55.389Z,97679.34
2023-03-10T04:56:57.345Z,97673.38
2023-03-10T05:01:59.288Z,97674.22
2023-03-10T05:07:01.257Z,97680.78
2023-03-10T05:12:12.613Z,97671.53
2023-03-10T05:17:15.631Z,97669.69
2023-03-10T05:22:18.673Z,97680.56
2023-03-10T05:27:21.943Z,97671.31
2023-03-10T05:32:24.412Z,97667.19
2023-03-10T05:37:27.201Z,97661.41
2023-03-10T05:42:29.919Z,97666.75
2023-03-10T05:47:33.797Z,97650.34
2023-03-10T05:52:42.153Z,97643.75
2023-03-10T05:57:45.118Z,97652.38
2023-03-10T06:02:47.156Z,97658.31
2023-03-10T06:07:48.751Z,97661.78
2023-03-10T06:12:50.349Z,97660.53
2023-03-10T06:17:52.030Z,97656.81
2023-03-10T06:22:53.625Z,97671.66
2023-03-10T06:27:55.203Z,97663.81
2023-03-10T06:32:57.001Z,97662.16
2023-03-10T06:37:58.732Z,97650.22
2023-03-10T06:43:00.326Z,97648.94
2023-03-10T06:48:02.257Z,97646.06
2023-03-10T06:53:11.760Z,97648.97
2023-03-10T06:58:13.376Z,97657.78
2023-03-10T07:03:15.009Z,97651.81
2023-03-10T07:08:16.616Z,97654.50
2023-03-10T07:13:18.178Z,97656.72
2023-03-10T07:18:19.842Z,97646.44
2023-03-10T07:23:21.660Z,97662.44
2023-03-10T07:28:24.156Z,97665.75
2023-03-10T07:33:25.917Z,97671.47
2023-03-10T07:38:27.512Z,97670.63
2023-03-10T07:43:29.210Z,97660.75
2023-03-10T07:48:30.902Z,97666.66
2023-03-10T07:53:33.177Z,97646.28
2023-03-10T07:58:35.614Z,97659.81
2023-03-10T08:03:37.310Z,97661.81
2023-03-10T08:08:39.365Z,97659.34
2023-03-10T08:13:41.778Z,97670.03
2023-03-10T08:18:43.881Z,97664.84
2023-03-10T08:23:45.549Z,97674.84
2023-03-10T08:28:47.523Z,97676.03
2023-03-10T08:33:49.292Z,97665.69
2023-03-10T08:38:52.678Z,97674.88
2023-03-10T08:43:55.865Z,97671.53
2023-03-10T08:48:57.863Z,97669.56
2023-03-10T08:53:59.993Z,97668.91
2023-03-10T08:59:01.700Z,97647.22
2023-03-10T09:04:04.994Z,97670.59
2023-03-10T09:09:08.469Z,97665.78
2023-03-10T09:14:11.509Z,97662.00
2023-03-10T09:19:13.104Z,97665.44
2023-03-10T09:24:14.635Z,97665.44
2023-03-10T09:29:16.355Z,97673.56
2023-03-10T09:34:17.975Z,97665.16
2023-03-10T09:39:19.622Z,97678.56
2023-03-10T09:44:45.673Z,97672.94
2023-03-10T09:49:54.555Z,97668.03
2023-03-10T09:55:03.636Z,97663.72
2023-03-10T10:00:09.077Z,97656.31
2023-03-10T10:05:20.075Z,97667.34
2023-03-10T10:10:27.370Z,97667.00
2023-03-10T10:15:34.942Z,97661.09
2023-03-10T10:20:43.953Z,97658.44
2023-03-10T10:25:45.834Z,97660.53
2023-03-10T10:30:47.617Z,97663.16
2023-03-10T10:36:02.963Z,97655.31
2023-03-10T10:41:07.846Z,97661.16
2023-03-10T10:46:11.190Z,97661.72
2023-03-10T10:51:29.177Z,97655.91
2023-03-10T10:56:31.092Z,97652.31
2023-03-10T11:01:57.385Z,97666.41
2023-03-10T11:07:11.459Z,97643.75
2023-03-10T11:12:26.731Z,97651.94
2023-03-10T11:17:30.358Z,97655.78
2023-03-10T11:22:48.720Z,97663.16
2023-03-10T11:28:20.923Z,97654.16
2023-03-10T11:33:28.386Z,97641.91
2023-03-10T11:38:43.286Z,97637.22
2023-03-10T11:43:55.730Z,97622.16
2023-03-10T11:49:17.327Z,97612.34
2023-03-10T11:54:25.107Z,97611.38
2023-03-10T11:59:31.000Z,97613.38
2023-03-10T12:04:44.593Z,97620.16
2023-03-10T12:09:57.565Z,97600.41
2023-03-10T12:15:00.889Z,97592.91
2023-03-10T12:20:16.036Z,97597.34
2023-03-10T12:25:30.001Z,97580.50
2023-03-10T12:30:52.024Z,97577.81
2023-03-10T12:35:55.798Z,97579.47
2023-03-10T12:40:58.744Z,97580.66
2023-03-10T12:46:02.073Z,97586.75
2023-03-10T12:51:13.434Z,97577.97
2023-03-10T12:56:14.926Z,97574.34
2023-03-10T13:01:20.461Z,97568.16
2023-03-10T13:06:33.751Z,97561.72
2023-03-10T13:11:41.605Z,97547.78
2023-03-10T13:16:56.570Z,97539.94
2023-03-10T13:21:58.538Z,97533.34
2023-03-10T13:27:07.598Z,97528.56
2023-03-10T13:32:18.444Z,97510.47
2023-03-10T13:37:20.098Z,97514.31
2023-03-10T13:42:40.932Z,97511.38
2023-03-10T13:47:44.821Z,97503.06
2023-03-10T13:52:59.508Z,97501.53
2023-03-10T13:58:02.068Z,97491.34
2023-03-10T14:03:04.636Z,97487.94
2023-03-10T14:08:06.909Z,97477.53
2023-03-10T14:13:40.241Z,97482.56
2023-03-10T14:18:42.965Z,97477.16
2023-03-10T14:23:44.559Z,97477.34
2023-03-10T14:28:46.260Z,97544.41
2023-03-10T14:33:48.284Z,97559.97
2023-03-10T14:38:49.923Z,97573.13
2023-03-10T14:43:51.733Z,97584.97
2023-03-10T14:48:53.549Z,97580.13
2023-03-10T14:53:55.160Z,97577.03
2023-03-10T14:58:58.324Z,97573.47
2023-03-10T15:03:59.928Z,97569.66
2023-03-10T15:09:01.569Z,97570.38
2023-03-10T15:14:21.461Z,97576.06
2023-03-10T15:19:24.970Z,97576.44
2023-03-10T15:24:26.613Z,97564.59
2023-03-10T15:29:28.225Z,97563.69
2023-03-10T15:34:29.942Z,97555.00
2023-03-10T15:39:33.796Z,97535.44
2023-03-10T15:44:36.275Z,97535.88
2023-03-10T15:49:38.729Z,97530.03
2023-03-10T15:54:40.829Z,97533.88
2023-03-10T15:59:42.443Z,97534.22
2023-03-10T16:04:44.392Z,97527.84
2023-03-10T16:09:47.366Z,97537.53
2023-03-10T16:14:49.237Z,97531.69
2023-03-10T16:19:51.158Z,97534.53
2023-03-10T16:24:52.781Z,97528.72
2023-03-10T16:29:54.416Z,97532.31
2023-03-10T16:34:56.045Z,97541.16
2023-03-10T16:39:57.953Z,97533.69
2023-03-10T16:44:59.510Z,97535.13
2023-03-10T16:50:01.133Z,97526.19
2023-03-10T16:55:05.092Z,97530.38
2023-03-10T17:00:09.245Z,97531.84
2023-03-10T17:05:10.887Z,97523.31
2023-03-10T17:10:12.527Z,97522.31
2023-03-10T17:15:14.105Z,97523.06
2023-03-10T17:20:17.182Z,97539.13
2023-03-10T17:25:18.787Z,97533.47
2023-03-10T17:30:20.624Z,97528.72
2023-03-10T17:35:22.216Z,97524.81
2023-03-10T17:40:24.020Z,97525.69
2023-03-10T17:45:25.613Z,97528.41
2023-03-10T17:50:27.254Z,97527.44
2023-03-10T17:55:28.816Z,97514.75
2023-03-10T18:00:30.470Z,97531.31
2023-03-10T18:05:32.204Z,97523.94
2023-03-10T18:10:35.391Z,97523.53
2023-03-10T18:15:37.575Z,97505.75
2023-03-10T18:20:40.457Z,97503.75
2023-03-10T18:25:46.009Z,97504.22
2023-03-10T18:30:49.214Z,97481.41
2023-03-10T18:35:50.913Z,97480.38
2023-03-10T18:41:03.535Z,97481.22
2023-03-10T18:46:06.729Z,97476.19
2023-03-10T18:51:08.534Z,97469.47
2023-03-10T18:56:10.393Z,97476.09
2023-03-10T19:01:13.770Z,97466.94
2023-03-10T19:06:15.372Z,97466.38
2023-03-10T19:11:17.160Z,97468.81
2023-03-10T19:16:18.922Z,97462.78
2023-03-10T19:21:22.868Z,97455.03
2023-03-10T19:26:25.078Z,97450.19
2023-03-10T19:31:26.797Z,97441.78
2023-03-10T19:36:29.520Z,97435.50
2023-03-10T19:41:31.240Z,97427.81
2023-03-10T19:46:32.922Z,97442.88
2023-03-10T19:51:34.614Z,97442.47
2023-03-10T19:56:36.260Z,97436.72
2023-03-10T20:01:40.157Z,97444.16
2023-03-10T20:06:41.981Z,97447.34
2023-03-10T20:11:44.019Z,97453.72
2023-03-10T20:16:45.827Z,97451.56
2023-03-10T20:21:47.621Z,97464.09
2023-03-10T20:26:49.339Z,97456.28
2023-03-10T20:31:51.050Z,97448.06
2023-03-10T20:36:52.632Z,97462.66
2023-03-10T20:41:54.384Z,97466.44
2023-03-10T20:46:55.958Z,97455.78
2023-03-10T20:51:57.610Z,97469.88
2023-03-10T20:56:59.173Z,97475.06
2023-03-10T21:02:00.755Z,97470.75
2023-03-10T21:07:02.385Z,97475.59
2023-03-10T21:12:04.311Z,97481.22
2023-03-10T21:17:06.875Z,97487.69
2023-03-10T21:22:08.830Z,97483.66
2023-03-10T21:27:10.483Z,97499.09
2023-03-10T21:32:12.299Z,97481.38
2023-03-10T21:37:14.163Z,97481.13
2023-03-10T21:42:16.073Z,97482.72
2023-03-10T21:47:17.677Z,97491.72
2023-03-10T21:52:19.244Z,97488.53
2023-03-10T21:57:20.846Z,97483.69
2023-03-10T22:02:30.317Z,97488.91
2023-03-10T22:07:32.579Z,97486.09
2023-03-10T22:12:34.409Z,97491.00
2023-03-10T22:17:35.946Z,97486.88
2023-03-10T22:22:37.523Z,97507.00
2023-03-10T22:27:39.218Z,97500.84
2023-03-10T22:32:41.544Z,97503.56
2023-03-10T22:37:43.581Z,97507.28
2023-03-10T22:42:45.748Z,97516.94
2023-03-10T22:47:48.142Z,97505.28
2023-03-10T22:52:49.870Z,97514.91
2023-03-10T22:57:52.580Z,97516.78
2023-03-10T23:02:54.184Z,97513.88
2023-03-10T23:07:56.223Z,97518.16
2023-03-10T23:13:06.440Z,97525.56
2023-03-10T23:18:08.703Z,97525.41
2023-03-10T23:23:14.614Z,97541.00
2023-03-10T23:28:17.574Z,97538.34
2023-03-10T23:33:22.063Z,97540.38
2023-03-10T23:38:25.230Z,97565.41
2023-03-10T23:43:27.284Z,97595.94
2023-03-10T23:48:29.086Z,97660.47
2023-03-10T23:53:30.853Z,97675.50
2023-03-10T23:58:32.620Z,97712.38
